Time;durP1;ratioP1;P1;durP2;ratioP2;P2;SDS_P1;SDS_P2;PMS_P1;PMS_P2;Temp;Humidity;BMP_temperature;BMP_pressure;BME280_temperature;BME280_humidity;BME280_pressure;Samples;Min_cycle;Max_cycle;Signal;HPM_P1;HPM_P2
2022/09/05 00:02:02;;;;;;;6.13;1.80;;;16.10;61.30;;;;;;5059172;28;20186;-78
2022/09/05 00:04:59;;;;;;;4.60;1.87;;;16.40;60.40;;;;;;5074315;28;20184;-74
2022/09/05 00:08:18;;;;;;;5.30;1.50;;;16.50;59.70;;;;;;5055489;28;20635;-76
2022/09/05 00:11:16;;;;;;;5.47;1.80;;;16.90;58.80;;;;;;5050370;28;20248;-77
2022/09/05 00:13:48;;;;;;;4.13;1.50;;;17.10;58.30;;;;;;5060404;28;20314;-78
2022/09/05 00:16:30;;;;;;;4.27;1.57;;;17.20;59.60;;;;;;5054765;28;20719;-78
2022/09/05 00:19:36;;;;;;;6.83;1.40;;;16.90;59.50;;;;;;5053269;28;20206;-74
2022/09/05 00:22:39;;;;;;;4.27;1.57;;;16.70;61.30;;;;;;5053675;28;20182;-73
2022/09/05 00:25:36;;;;;;;5.03;1.37;;;16.70;61.10;;;;;;5057766;28;20240;-72
2022/09/05 00:28:11;;;;;;;6.60;1.73;;;16.70;61.00;;;;;;5070151;28;20203;-72
2022/09/05 00:31:06;;;;;;;10.83;1.50;;;16.60;61.00;;;;;;5057696;28;20223;-72
2022/09/05 00:34:10;;;;;;;5.23;1.63;;;16.80;60.80;;;;;;5055657;28;20181;-71
2022/09/05 00:37:08;;;;;;;6.23;1.50;;;16.80;60.50;;;;;;5054002;28;20184;-72
2022/09/05 00:39:39;;;;;;;9.07;1.47;;;16.80;60.10;;;;;;5053251;28;20195;-74
2022/09/05 00:42:17;;;;;;;7.53;1.77;;;16.80;61.50;;;;;;5061870;28;20230;-73
2022/09/05 00:44:54;;;;;;;7.77;2.00;;;16.90;61.90;;;;;;5059258;28;20213;-73
2022/09/05 00:47:47;;;;;;;5.80;1.63;;;17.30;60.30;;;;;;5068339;28;20636;-74
2022/09/05 00:50:31;;;;;;;6.83;1.20;;;17.20;59.60;;;;;;5053433;28;20219;-73
2022/09/05 00:53:20;;;;;;;4.30;1.67;;;17.40;58.20;;;;;;5052297;28;20834;-71
2022/09/05 00:56:03;;;;;;;5.43;1.73;;;17.20;58.70;;;;;;5052960;28;20204;-76
2022/09/05 00:59:03;;;;;;;3.83;1.33;;;17.00;59.70;;;;;;5054149;28;20185;-77
2022/09/05 01:01:52;;;;;;;7.27;1.60;;;17.30;60.00;;;;;;5069767;28;20636;-80
2022/09/05 01:04:39;;;;;;;3.80;1.33;;;17.60;57.30;;;;;;5065297;28;20654;-77
2022/09/05 01:07:12;;;;;;;5.47;1.47;;;17.70;56.50;;;;;;5050942;28;20198;-74
2022/09/05 01:09:46;;;;;;;3.87;1.30;;;17.80;56.10;;;;;;5055146;28;20229;-78
2022/09/05 01:12:42;;;;;;;4.40;1.30;;;17.80;55.20;;;;;;5063059;28;20192;-78
2022/09/05 01:15:42;;;;;;;6.87;1.30;;;17.90;53.90;;;;;;5053687;28;20232;-76
2022/09/05 01:18:41;;;;;;;2.97;1.27;;;17.90;52.60;;;;;;5040832;28;20277;-78
2022/09/05 01:21:58;;;;;;;2.77;1.03;;;18.30;52.50;;;;;;5050516;28;20191;-74
2022/09/05 01:24:51;;;;;;;1.83;1.00;;;18.30;50.70;;;;;;5055455;28;20180;-76
2022/09/05 01:27:49;;;;;;;6.93;1.50;;;18.00;49.80;;;;;;5037804;28;20191;-75
2022/09/05 01:30:22;;;;;;;5.40;1.10;;;18.00;49.40;;;;;;5053301;28;20183;-78
2022/09/05 01:32:49;;;;;;;2.60;1.00;;;18.20;48.40;;;;;;5056699;28;20523;-73
2022/09/05 01:35:29;;;;;;;3.47;1.30;;;18.20;45.90;;;;;;5058135;28;20267;-82
2022/09/05 01:38:05;;;;;;;7.30;1.00;;;18.30;46.70;;;;;;5060256;28;20730;-80
2022/09/05 01:41:08;;;;;;;4.43;1.07;;;18.30;47.70;;;;;;5056223;28;20247;-78
2022/09/05 01:44:19;;;;;;;1.47;1.07;;;18.30;48.30;;;;;;5051504;28;20254;-83
2022/09/05 01:46:52;;;;;;;12.57;1.30;;;18.30;49.00;;;;;;5030885;28;20182;-84
2022/09/05 01:49:26;;;;;;;6.43;1.50;;;18.40;51.10;;;;;;5048969;28;20219;-77
2022/09/05 01:51:56;;;;;;;6.90;1.40;;;18.50;52.60;;;;;;5052973;28;20225;-75
2022/09/05 01:54:30;;;;;;;5.93;1.70;;;18.40;49.10;;;;;;5052944;28;20187;-72
2022/09/05 01:57:00;;;;;;;6.63;1.43;;;18.40;49.40;;;;;;5053103;28;20278;-86
2022/09/05 02:00:04;;;;;;;3.77;1.57;;;18.50;50.60;;;;;;5052841;28;20172;-79
2022/09/05 02:03:07;;;;;;;5.03;1.40;;;18.80;50.70;;;;;;5052870;28;20179;-81
2022/09/05 02:06:02;;;;;;;3.97;1.50;;;18.90;48.40;;;;;;5052556;28;20179;-81
2022/09/05 02:08:53;;;;;;;2.87;1.00;;;18.80;51.20;;;;;;5061443;28;20209;-81
2022/09/05 02:11:40;;;;;;;4.83;0.90;;;19.30;48.60;;;;;;5052624;28;20513;-82
2022/09/05 02:14:44;;;;;;;5.77;1.10;;;19.50;48.40;;;;;;5051901;28;20594;-80
2022/09/05 02:17:23;;;;;;;3.80;1.13;;;19.90;48.40;;;;;;5051706;28;20191;-78
2022/09/05 02:20:10;;;;;;;10.13;1.40;;;19.80;48.10;;;;;;5052362;28;20172;-81
2022/09/05 02:22:45;;;;;;;4.43;1.20;;;19.50;47.70;;;;;;5052541;28;20175;-73
2022/09/05 02:25:20;;;;;;;4.47;1.20;;;18.70;50.00;;;;;;5052627;28;20520;-76
2022/09/05 02:28:14;;;;;;;7.03;1.67;;;18.00;51.40;;;;;;5066781;28;20517;-73
2022/09/05 02:30:51;;;;;;;5.93;1.30;;;17.60;52.20;;;;;;5049305;28;20245;-79
2022/09/05 02:33:30;;;;;;;5.77;1.30;;;17.80;50.80;;;;;;5052191;28;20186;-74
2022/09/05 02:36:28;;;;;;;3.37;1.03;;;18.50;49.40;;;;;;5051101;28;20184;-77
2022/09/05 02:39:08;;;;;;;4.10;1.27;;;18.80;47.40;;;;;;5064292;28;20548;-77
2022/09/05 02:41:55;;;;;;;4.07;1.20;;;19.00;47.90;;;;;;5051845;28;20580;-78
2022/09/05 02:44:49;;;;;;;2.80;1.17;;;19.70;45.90;;;;;;5052242;28;20538;-76
2022/09/05 02:47:45;;;;;;;5.73;1.10;;;19.20;47.50;;;;;;5051967;28;20214;-76
2022/09/05 02:50:27;;;;;;;6.83;1.37;;;19.10;47.60;;;;;;5051753;28;20211;-78
2022/09/05 02:52:56;;;;;;;7.73;1.50;;;18.90;49.30;;;;;;5052024;28;20517;-76
2022/09/05 02:56:00;;;;;;;4.83;1.20;;;18.30;49.80;;;;;;5052133;28;20253;-76
2022/09/05 02:58:30;;;;;;;5.80;1.47;;;18.10;50.30;;;;;;5084156;28;20183;-74
2022/09/05 03:01:40;;;;;;;5.87;1.60;;;18.30;50.40;;;;;;5087470;28;20227;-78
2022/09/05 03:04:25;;;;;;;7.63;2.03;;;18.50;50.20;;;;;;5043344;28;20268;-77
2022/09/05 03:06:55;;;;;;;3.40;1.20;;;18.30;51.40;;;;;;5052135;28;20180;-73
2022/09/05 03:10:16;;;;;;;3.87;1.30;;;18.80;51.00;;;;;;5061986;28;20711;-75
2022/09/05 03:12:58;;;;;;;8.87;1.53;;;19.70;47.90;;;;;;5048629;28;20258;-75
2022/09/05 03:16:00;;;;;;;6.53;1.23;;;20.00;47.70;;;;;;5049833;28;20217;-75
2022/09/05 03:19:01;;;;;;;3.57;1.00;;;20.70;46.40;;;;;;5032158;28;20327;-73
2022/09/05 03:22:05;;;;;;;4.27;0.90;;;21.30;45.30;;;;;;5052156;28;20187;-75
2022/09/05 03:24:52;;;;;;;5.80;1.30;;;21.10;45.60;;;;;;5058009;28;20721;-74
2022/09/05 03:27:57;;;;;;;2.43;0.73;;;21.10;46.20;;;;;;5074667;28;20183;-78
2022/09/05 03:30:55;;;;;;;6.27;1.20;;;20.80;47.60;;;;;;5064205;28;20547;-75
2022/09/05 03:33:35;;;;;;;5.27;1.60;;;19.90;48.00;;;;;;5066685;28;20182;-75
2022/09/05 03:36:33;;;;;;;6.20;1.57;;;19.50;50.40;;;;;;5091288;28;20182;-74
2022/09/05 03:39:06;;;;;;;8.07;1.50;;;19.30;51.20;;;;;;5080329;28;20653;-75
2022/09/05 03:41:58;;;;;;;10.10;1.70;;;18.80;52.90;;;;;;5056285;28;20231;-74
2022/09/05 03:44:48;;;;;;;10.07;1.37;;;18.50;53.00;;;;;;5080043;28;20178;-76
2022/09/05 03:47:52;;;;;;;4.67;1.80;;;18.80;52.90;;;;;;5070407;28;20180;-74
2022/09/05 03:50:36;;;;;;;4.67;1.30;;;19.80;49.20;;;;;;5063894;28;20575;-74
2022/09/05 03:53:24;;;;;;;8.17;1.53;;;20.30;47.60;;;;;;5100191;28;20178;-75
2022/09/05 03:56:04;;;;;;;7.73;1.47;;;21.20;46.60;;;;;;5054603;28;20279;-76
2022/09/05 03:59:06;;;;;;;7.60;1.33;;;21.50;44.80;;;;;;5067976;28;20236;-77
2022/09/05 04:02:03;;;;;;;6.40;1.40;;;21.10;46.50;;;;;;5080541;28;20178;-77
2022/09/05 04:04:53;;;;;;;8.07;1.73;;;20.30;48.40;;;;;;5082440;28;20179;-73
2022/09/05 04:07:26;;;;;;;8.10;1.50;;;20.20;48.70;;;;;;5066816;28;20712;-77
2022/09/05 04:09:58;;;;;;;14.83;1.87;;;20.20;47.90;;;;;;5065933;28;20207;-76
2022/09/05 04:12:34;;;;;;;4.50;1.30;;;20.30;48.90;;;;;;5089000;28;20680;-75
2022/09/05 04:15:26;;;;;;;4.83;1.23;;;20.90;46.70;;;;;;5064684;28;20228;-76
2022/09/05 04:18:02;;;;;;;4.70;1.10;;;20.80;45.80;;;;;;5071674;28;20194;-74
2022/09/05 04:20:44;;;;;;;3.80;1.10;;;20.80;46.40;;;;;;5070758;28;20175;-76
2022/09/05 04:23:55;;;;;;;9.63;1.40;;;20.80;45.80;;;;;;5081629;28;20229;-74
2022/09/05 04:26:44;;;;;;;4.90;1.50;;;21.60;44.50;;;;;;5062865;28;20207;-76
2022/09/05 04:29:28;;;;;;;5.93;1.20;;;21.80;44.10;;;;;;5063922;28;20207;-77
2022/09/05 04:32:13;;;;;;;4.63;1.40;;;20.50;45.90;;;;;;5056349;28;20203;-76
2022/09/05 04:35:07;;;;;;;5.43;1.13;;;20.40;46.30;;;;;;5063678;28;20358;-74
2022/09/05 04:38:12;;;;;;;3.80;0.90;;;20.20;45.30;;;;;;5054415;28;20172;-76
2022/09/05 04:40:50;;;;;;;4.63;1.50;;;19.00;47.80;;;;;;5066962;28;20299;-82
2022/09/05 04:43:30;;;;;;;6.83;1.27;;;19.20;47.20;;;;;;5082439;28;20190;-78
2022/09/05 04:46:35;;;;;;;4.87;1.20;;;19.00;47.80;;;;;;5084249;28;20190;-77
2022/09/05 04:49:09;;;;;;;5.57;1.40;;;19.30;46.80;;;;;;5059532;28;20219;-80
2022/09/05 04:52:07;;;;;;;3.47;1.03;;;19.30;48.30;;;;;;5053811;28;20222;-75
2022/09/05 04:54:55;;;;;;;3.03;1.17;;;19.80;46.00;;;;;;5080040;28;20214;-76
2022/09/05 04:57:33;;;;;;;3.23;1.20;;;20.70;43.80;;;;;;5070977;28;20257;-77
2022/09/05 05:00:24;;;;;;;3.63;1.10;;;21.20;42.70;;;;;;5058573;28;20593;-78
2022/09/05 05:03:17;;;;;;;8.50;1.30;;;21.00;42.80;;;;;;5066278;28;20646;-80
2022/09/05 05:05:47;;;;;;;3.20;1.20;;;21.50;42.20;;;;;;5076216;28;20179;-81
2022/09/05 05:08:24;;;;;;;8.80;1.17;;;21.60;41.30;;;;;;5067089;28;20694;-76
2022/09/05 05:11:23;;;;;;;2.60;1.00;;;21.00;43.30;;;;;;5065103;28;20317;-77
2022/09/05 05:14:06;;;;;;;6.43;1.50;;;19.70;45.40;;;;;;5063956;28;20551;-86
2022/09/05 05:16:45;;;;;;;9.23;1.60;;;19.00;50.40;;;;;;5067131;28;20215;-80
2022/09/05 05:19:33;;;;;;;3.63;1.33;;;18.60;51.50;;;;;;5065375;28;20190;-79
2022/09/05 05:22:04;;;;;;;8.90;1.57;;;18.60;51.80;;;;;;5053586;28;20270;-78
2022/09/05 05:24:44;;;;;;;8.87;1.30;;;18.30;52.60;;;;;;5063995;28;20179;-76
2022/09/05 05:27:15;;;;;;;6.07;1.70;;;18.20;53.30;;;;;;5071367;28;20182;-74
2022/09/05 05:29:51;;;;;;;3.53;1.10;;;18.30;51.70;;;;;;5054520;28;20215;-74
2022/09/05 05:32:36;;;;;;;4.33;1.27;;;19.50;48.80;;;;;;5077457;28;20634;-75
2022/09/05 05:35:17;;;;;;;4.23;1.37;;;19.70;47.60;;;;;;5052956;28;20222;-75
2022/09/05 05:37:59;;;;;;;5.40;1.20;;;19.80;46.00;;;;;;5056491;28;20568;-78
2022/09/05 05:40:33;;;;;;;4.27;1.00;;;20.10;45.80;;;;;;5078372;28;20620;-74
2022/09/05 05:43:25;;;;;;;3.10;1.07;;;20.50;46.50;;;;;;5065874;28;20573;-79
2022/09/05 05:45:58;;;;;;;3.57;0.90;;;20.40;44.50;;;;;;5066949;28;20171;-73
2022/09/05 05:48:38;;;;;;;5.87;1.00;;;20.30;43.70;;;;;;5054566;28;20199;-78
2022/09/05 05:51:27;;;;;;;3.43;1.10;;;20.00;45.10;;;;;;5058407;28;20695;-80
2022/09/05 05:54:00;;;;;;;7.30;1.60;;;19.80;46.70;;;;;;5061928;28;20183;-78
2022/09/05 05:57:06;;;;;;;2.93;1.10;;;19.20;47.60;;;;;;5065531;28;20176;-76
2022/09/05 05:59:39;;;;;;;2.43;0.90;;;19.70;44.70;;;;;;5051600;28;20176;-75
2022/09/05 06:02:34;;;;;;;6.30;1.27;;;18.70;48.00;;;;;;5066849;28;20664;-78
2022/09/05 06:05:35;;;;;;;4.60;1.10;;;18.30;48.00;;;;;;5056646;28;20186;-76
2022/09/05 06:08:20;;;;;;;5.83;1.53;;;17.60;49.30;;;;;;5059552;28;20188;-73
2022/09/05 06:11:15;;;;;;;7.50;1.17;;;17.20;50.30;;;;;;5078018;28;20179;-77
2022/09/05 06:14:10;;;;;;;5.57;1.20;;;17.30;51.60;;;;;;5072086;28;20177;-76
2022/09/05 06:16:46;;;;;;;4.40;1.63;;;17.70;51.40;;;;;;5076077;28;20178;-76
2022/09/05 06:19:51;;;;;;;4.17;1.40;;;17.30;52.10;;;;;;5062736;28;20178;-76
2022/09/05 06:22:39;;;;;;;5.07;1.30;;;16.80;53.30;;;;;;5072153;28;20271;-79
2022/09/05 06:25:43;;;;;;;6.10;1.23;;;16.50;53.70;;;;;;5072103;28;20569;-76
2022/09/05 06:29:06;;;;;;;7.17;1.40;;;16.10;54.30;;;;;;5051909;28;20210;-82
2022/09/05 06:31:43;;;;;;;5.93;1.60;;;16.60;54.80;;;;;;5026830;28;20189;-80
2022/09/05 06:35:01;;;;;;;7.80;1.53;;;18.20;51.20;;;;;;5027258;28;20248;-82
2022/09/05 06:38:03;;;;;;;5.60;1.30;;;18.20;51.10;;;;;;5064547;28;20659;-76
2022/09/05 06:41:06;;;;;;;6.60;1.80;;;17.60;52.10;;;;;;5046609;28;20281;-76
2022/09/05 06:43:54;;;;;;;4.43;1.30;;;17.80;51.10;;;;;;5084635;28;20228;-75
2022/09/05 06:46:34;;;;;;;7.80;1.47;;;17.10;54.00;;;;;;5060621;28;20665;-74
2022/09/05 06:49:38;;;;;;;5.93;1.50;;;16.70;55.50;;;;;;5069972;28;20232;-77
2022/09/05 06:52:05;;;;;;;6.00;1.77;;;16.70;56.00;;;;;;5076234;28;20179;-74
2022/09/05 06:55:02;;;;;;;6.80;1.50;;;16.90;55.60;;;;;;5067155;28;20638;-77
2022/09/05 06:57:45;;;;;;;5.67;1.60;;;16.50;57.60;;;;;;5069837;28;20240;-76
2022/09/05 07:00:22;;;;;;;4.30;1.27;;;16.20;58.80;;;;;;5064556;28;20178;-74
2022/09/05 07:02:52;;;;;;;4.93;1.40;;;15.80;59.20;;;;;;5060953;28;20652;-77
2022/09/05 07:05:20;;;;;;;8.13;1.70;;;15.70;59.70;;;;;;5056303;28;20199;-74
2022/09/05 07:07:53;;;;;;;7.13;1.77;;;15.70;59.70;;;;;;5064735;28;20737;-72
2022/09/05 07:10:30;;;;;;;4.80;2.07;;;15.70;60.40;;;;;;5061511;28;20221;-75
2022/09/05 07:13:15;;;;;;;8.53;1.50;;;15.50;59.70;;;;;;5054471;28;20195;-77
2022/09/05 07:16:03;;;;;;;6.03;1.53;;;15.40;59.60;;;;;;5057819;28;20185;-74
2022/09/05 07:18:52;;;;;;;7.97;1.30;;;15.40;59.60;;;;;;5072163;28;20655;-75
2022/09/05 07:21:49;;;;;;;5.90;1.80;;;15.30;59.20;;;;;;5072432;28;20187;-75
2022/09/05 07:24:21;;;;;;;8.23;1.70;;;15.30;59.10;;;;;;5093921;28;20266;-82
2022/09/05 07:26:51;;;;;;;5.90;1.80;;;15.30;58.60;;;;;;5069863;28;20214;-83
2022/09/05 07:29:24;;;;;;;6.73;1.70;;;15.20;59.00;;;;;;5066557;28;20208;-79
2022/09/05 07:31:55;;;;;;;7.20;1.80;;;15.10;60.00;;;;;;5055150;28;20538;-86
2022/09/05 07:34:30;;;;;;;10.97;2.07;;;15.00;60.90;;;;;;5055626;28;20184;-76
2022/09/05 07:37:02;;;;;;;9.37;2.07;;;15.00;61.10;;;;;;5054801;28;20174;-81
2022/09/05 07:39:38;;;;;;;10.97;1.80;;;15.00;61.40;;;;;;5065682;28;20184;-81
2022/09/05 07:42:13;;;;;;;5.50;1.70;;;15.00;61.30;;;;;;5077987;28;20269;-82
2022/09/05 07:45:07;;;;;;;8.00;2.13;;;15.00;61.10;;;;;;5073756;28;20171;-82
2022/09/05 07:48:10;;;;;;;7.53;2.10;;;14.90;61.00;;;;;;5054845;28;20526;-81
2022/09/05 07:50:49;;;;;;;6.20;2.13;;;14.80;60.70;;;;;;5068837;28;20190;-81
2022/09/05 07:53:18;;;;;;;14.03;1.90;;;14.80;60.50;;;;;;5067505;28;20731;-78
2022/09/05 07:55:55;;;;;;;8.80;1.87;;;14.80;61.00;;;;;;5062796;28;20626;-81
2022/09/05 07:58:33;;;;;;;7.87;1.80;;;14.80;61.10;;;;;;5066985;28;20321;-87
2022/09/05 08:01:01;;;;;;;8.67;2.13;;;14.70;61.70;;;;;;5056370;28;20186;-79
2022/09/05 08:03:28;;;;;;;6.43;1.80;;;14.70;61.70;;;;;;5054834;28;20172;-82
2022/09/05 08:05:59;;;;;;;5.03;2.10;;;14.70;61.10;;;;;;5062530;28;20254;-82
2022/09/05 08:09:06;;;;;;;7.90;2.30;;;14.80;60.80;;;;;;5070413;28;20197;-83
2022/09/05 08:11:35;;;;;;;10.10;2.30;;;14.70;61.00;;;;;;5059281;28;20168;-75
2022/09/05 08:14:19;;;;;;;5.57;1.83;;;14.70;60.50;;;;;;5067091;28;20188;-77
2022/09/05 08:16:47;;;;;;;6.03;2.07;;;14.70;61.10;;;;;;5067634;28;20182;-85
2022/09/05 08:19:53;;;;;;;12.47;2.13;;;14.70;61.50;;;;;;5054145;28;20631;-82
2022/09/05 08:22:34;;;;;;;9.43;2.77;;;14.60;61.90;;;;;;5060408;28;20179;-79
2022/09/05 08:25:16;;;;;;;8.70;2.63;;;14.60;62.60;;;;;;5059195;28;20528;-76
2022/09/05 08:28:40;;;;;;;8.17;2.70;;;14.50;62.70;;;;;;5061465;28;20179;-73
2022/09/05 08:31:19;;;;;;;6.67;1.80;;;14.50;62.70;;;;;;5019218;28;20191;-76
2022/09/05 08:33:51;;;;;;;7.83;2.47;;;14.50;62.60;;;;;;5032080;28;20237;-75
2022/09/05 08:36:45;;;;;;;8.47;2.20;;;14.60;62.70;;;;;;5047463;28;20188;-74
2022/09/05 08:39:18;;;;;;;8.30;1.73;;;14.50;63.20;;;;;;5064348;28;20194;-80
2022/09/05 08:41:54;;;;;;;14.40;2.63;;;14.50;64.00;;;;;;5054420;28;20215;-79
2022/09/05 08:44:40;;;;;;;9.50;2.20;;;14.50;64.20;;;;;;5064660;28;20558;-75
2022/09/05 08:47:32;;;;;;;12.13;1.93;;;14.50;64.20;;;;;;5054106;28;20183;-78
2022/09/05 08:50:17;;;;;;;7.93;2.87;;;14.40;63.80;;;;;;5053502;28;20208;-75
2022/09/05 08:53:10;;;;;;;17.33;2.03;;;14.30;63.70;;;;;;5053919;28;20180;-75
2022/09/05 08:56:05;;;;;;;11.50;1.97;;;14.40;63.90;;;;;;5058499;28;20175;-75
2022/09/05 08:58:35;;;;;;;9.93;1.97;;;14.40;65.40;;;;;;5054101;28;20243;-78
2022/09/05 09:01:38;;;;;;;6.90;2.30;;;14.40;66.20;;;;;;5056488;28;20214;-76
2022/09/05 09:04:43;;;;;;;8.10;2.07;;;14.40;65.80;;;;;;5059969;28;20341;-72
2022/09/05 09:07:33;;;;;;;13.97;5.67;;;14.30;65.60;;;;;;5052370;28;20206;-74
2022/09/05 09:10:15;;;;;;;10.07;2.70;;;14.30;65.90;;;;;;5056000;28;20210;-75
2022/09/05 09:13:03;;;;;;;11.47;2.97;;;14.30;66.30;;;;;;5053247;28;20251;-74
2022/09/05 09:15:44;;;;;;;9.40;1.87;;;14.30;66.40;;;;;;5058870;28;20186;-76
2022/09/05 09:18:16;;;;;;;13.53;9.17;;;14.30;66.20;;;;;;5054188;28;20179;-77
2022/09/05 09:20:58;;;;;;;10.57;2.90;;;14.20;65.30;;;;;;5059785;28;20189;-75
2022/09/05 09:23:46;;;;;;;8.30;2.00;;;14.30;64.90;;;;;;5063250;28;20218;-74
2022/09/05 09:26:16;;;;;;;11.03;2.10;;;14.30;65.00;;;;;;5053569;28;20176;-77
2022/09/05 09:28:46;;;;;;;7.20;2.10;;;14.30;66.00;;;;;;5053021;28;20605;-77
2022/09/05 09:31:48;;;;;;;6.07;1.83;;;14.30;66.80;;;;;;5053386;28;20184;-77
2022/09/05 09:34:51;;;;;;;13.73;2.43;;;14.30;67.00;;;;;;5068074;28;20174;-77
2022/09/05 09:37:26;;;;;;;8.57;1.87;;;14.30;67.00;;;;;;5053466;28;20266;-74
2022/09/05 09:40:30;;;;;;;13.33;2.13;;;14.30;67.10;;;;;;5052795;28;20707;-76
2022/09/05 09:43:48;;;;;;;10.13;2.50;;;14.30;67.20;;;;;;5065720;28;20226;-78
2022/09/05 09:46:29;;;;;;;15.07;2.47;;;14.20;67.20;;;;;;5035816;28;20192;-74
2022/09/05 09:48:59;;;;;;;10.37;2.50;;;14.20;67.70;;;;;;5052727;28;20211;-75
2022/09/05 09:51:57;;;;;;;8.97;2.03;;;14.20;67.90;;;;;;5053042;28;20638;-78
2022/09/05 09:54:30;;;;;;;11.27;2.40;;;14.20;67.90;;;;;;5053474;28;20203;-74
2022/09/05 09:57:37;;;;;;;8.43;2.13;;;14.20;67.60;;;;;;5061107;28;20188;-74
2022/09/05 10:00:26;;;;;;;9.13;2.00;;;14.20;66.90;;;;;;5052668;28;20274;-73
2022/09/05 10:03:12;;;;;;;9.13;1.70;;;14.20;66.70;;;;;;5052459;28;20241;-75
2022/09/05 10:06:14;;;;;;;14.90;1.80;;;14.20;66.80;;;;;;5054574;28;20190;-74
2022/09/05 10:09:18;;;;;;;14.10;2.60;;;14.20;66.40;;;;;;5063412;28;20226;-77
2022/09/05 10:12:09;;;;;;;10.43;3.73;;;14.20;66.70;;;;;;5063576;28;20609;-75
2022/09/05 10:15:09;;;;;;;10.20;2.37;;;14.20;67.10;;;;;;5061469;28;20265;-76
2022/09/05 10:17:51;;;;;;;5.67;1.80;;;14.10;67.30;;;;;;5051621;28;20168;-74
2022/09/05 10:20:59;;;;;;;11.83;1.93;;;14.10;67.50;;;;;;5052086;28;20649;-72
2022/09/05 10:23:44;;;;;;;7.07;2.10;;;14.20;66.90;;;;;;5063206;28;20191;-72
2022/09/05 10:26:39;;;;;;;12.47;2.13;;;14.20;67.10;;;;;;5057006;28;20187;-73
2022/09/05 10:29:20;;;;;;;5.47;1.53;;;14.20;66.70;;;;;;5070565;28;20207;-73
2022/09/05 10:31:55;;;;;;;11.10;2.20;;;14.20;65.70;;;;;;5058553;28;20208;-74
2022/09/05 10:34:27;;;;;;;8.43;2.40;;;14.20;66.00;;;;;;5055170;28;20171;-76
2022/09/05 10:37:04;;;;;;;6.43;1.93;;;14.10;66.10;;;;;;5056123;28;20699;-75
2022/09/05 10:39:39;;;;;;;10.07;1.90;;;14.20;65.50;;;;;;5066451;28;20583;-75
2022/09/05 10:42:15;;;;;;;5.77;1.50;;;14.10;65.60;;;;;;5057039;28;20739;-76
2022/09/05 10:44:52;;;;;;;5.07;1.40;;;14.10;65.80;;;;;;5076034;28;20219;-73
2022/09/05 10:47:31;;;;;;;6.47;1.63;;;14.20;66.70;;;;;;5056738;28;20222;-79
2022/09/05 10:50:29;;;;;;;7.57;1.87;;;14.30;68.20;;;;;;5059716;28;20215;-77
2022/09/05 10:53:38;;;;;;;8.37;1.80;;;14.30;70.50;;;;;;5056801;28;20183;-79
2022/09/05 10:56:27;;;;;;;12.03;2.43;;;14.30;71.00;;;;;;5062477;28;20179;-80
2022/09/05 10:59:02;;;;;;;12.60;2.50;;;14.20;71.10;;;;;;5057288;28;20260;-76
2022/09/05 11:01:40;;;;;;;5.90;2.07;;;14.20;71.80;;;;;;5072214;28;20258;-76
2022/09/05 11:04:22;;;;;;;10.00;2.47;;;14.00;71.30;;;;;;5056702;28;20187;-75
2022/09/05 11:07:15;;;;;;;10.10;2.00;;;14.00;71.60;;;;;;5063284;28;20180;-74
2022/09/05 11:10:22;;;;;;;11.37;2.30;;;13.80;71.30;;;;;;5058124;28;20281;-75
2022/09/05 11:13:00;;;;;;;5.73;1.73;;;13.80;70.90;;;;;;5065022;28;20207;-78
2022/09/05 11:15:56;;;;;;;10.37;2.13;;;13.70;70.80;;;;;;5067372;28;20166;-76
2022/09/05 11:18:54;;;;;;;6.17;1.70;;;13.70;71.00;;;;;;5058876;28;20195;-74
2022/09/05 11:21:54;;;;;;;8.67;2.07;;;13.80;71.00;;;;;;5055091;28;20175;-74
2022/09/05 11:24:40;;;;;;;9.60;2.43;;;13.80;71.60;;;;;;5071350;28;20172;-73
2022/09/05 11:27:29;;;;;;;10.83;2.20;;;13.70;72.10;;;;;;5058115;28;20207;-84
2022/09/05 11:30:17;;;;;;;13.50;2.40;;;13.70;72.30;;;;;;5061242;28;20293;-79
2022/09/05 11:32:56;;;;;;;14.43;3.30;;;13.60;72.60;;;;;;5055501;28;20262;-82
2022/09/05 11:35:25;;;;;;;8.07;2.20;;;13.50;73.10;;;;;;5054950;28;20711;-82
2022/09/05 11:38:29;;;;;;;10.97;2.30;;;13.30;73.30;;;;;;5070495;28;20180;-76
2022/09/05 11:41:27;;;;;;;10.60;2.80;;;13.20;73.70;;;;;;5055999;28;20243;-79
2022/09/05 11:44:14;;;;;;;10.67;3.07;;;13.20;74.20;;;;;;5054903;28;20277;-84
2022/09/05 11:47:01;;;;;;;7.23;2.10;;;13.00;74.60;;;;;;5055598;28;20164;-84
2022/09/05 11:49:56;;;;;;;10.93;2.27;;;13.00;75.00;;;;;;5054886;28;20207;-85
2022/09/05 11:52:30;;;;;;;8.10;2.40;;;13.00;74.90;;;;;;5054784;28;20536;-78
2022/09/05 11:55:24;;;;;;;9.63;2.50;;;13.10;74.90;;;;;;5056044;28;20190;-79
2022/09/05 11:58:09;;;;;;;7.33;2.00;;;13.10;74.90;;;;;;5054697;28;20176;-88
2022/09/05 12:00:39;;;;;;;7.00;1.90;;;13.20;74.70;;;;;;5056984;28;20576;-80
2022/09/05 12:03:37;;;;;;;5.07;1.90;;;13.20;74.90;;;;;;5071523;28;20167;-79
2022/09/05 12:06:12;;;;;;;7.73;2.00;;;13.10;75.10;;;;;;5063160;28;20260;-75
2022/09/05 12:08:51;;;;;;;6.70;2.00;;;13.00;75.20;;;;;;5061759;28;20290;-72
2022/09/05 12:11:39;;;;;;;5.03;1.97;;;13.00;75.30;;;;;;5056778;28;20281;-82
2022/09/05 12:14:27;;;;;;;8.57;2.10;;;13.00;75.50;;;;;;5066923;28;20175;-82
2022/09/05 12:17:21;;;;;;;14.70;2.47;;;12.90;76.70;;;;;;5055215;28;20188;-82
2022/09/05 12:20:33;;;;;;;10.97;2.47;;;12.80;77.10;;;;;;5055999;28;20178;-82
2022/09/05 12:23:24;;;;;;;8.07;2.10;;;12.70;78.00;;;;;;5053984;28;20258;-75
2022/09/05 12:26:16;;;;;;;10.37;2.20;;;12.60;78.80;;;;;;5056743;28;20188;-74
2022/09/05 12:28:57;;;;;;;12.33;1.80;;;12.50;80.00;;;;;;5067595;28;20292;-74
2022/09/05 12:31:41;;;;;;;8.33;2.10;;;12.40;80.30;;;;;;5054352;28;20191;-74
2022/09/05 12:34:17;;;;;;;8.97;2.73;;;12.40;80.50;;;;;;5062854;28;20206;-73
2022/09/05 12:36:50;;;;;;;8.07;2.23;;;12.30;80.50;;;;;;5064481;28;20179;-74
2022/09/05 12:39:26;;;;;;;10.50;2.30;;;12.30;80.50;;;;;;5065279;28;20167;-76
2022/09/05 12:42:27;;;;;;;9.93;2.70;;;12.30;80.50;;;;;;5053705;28;20230;-72
2022/09/05 12:45:09;;;;;;;7.80;2.67;;;12.20;80.60;;;;;;5063190;28;20163;-74
2022/09/05 12:48:03;;;;;;;5.50;2.30;;;12.20;80.90;;;;;;5065724;28;20267;-75
2022/09/05 12:50:39;;;;;;;13.27;2.40;;;12.20;81.20;;;;;;5054468;28;20215;-73
2022/09/05 12:53:12;;;;;;;6.63;2.23;;;12.10;81.40;;;;;;5056396;28;20266;-72
2022/09/05 12:55:44;;;;;;;9.60;2.33;;;12.20;81.50;;;;;;5056340;28;20183;-84
2022/09/05 12:58:26;;;;;;;4.63;2.10;;;12.10;81.40;;;;;;5058047;28;20251;-85
2022/09/05 13:01:17;;;;;;;9.37;2.30;;;12.10;81.60;;;;;;5056919;28;20183;-85
2022/09/05 13:04:12;;;;;;;9.80;2.37;;;12.10;81.70;;;;;;5054406;28;20266;-82
2022/09/05 13:07:21;;;;;;;8.27;2.30;;;12.00;81.60;;;;;;5053321;28;20183;-80
2022/09/05 13:09:56;;;;;;;9.57;2.53;;;12.00;81.50;;;;;;5047295;28;20230;-83
2022/09/05 13:12:46;;;;;;;11.57;2.27;;;12.00;81.40;;;;;;5051796;28;20178;-83
2022/09/05 13:15:25;;;;;;;6.93;2.00;;;12.10;81.10;;;;;;5062764;28;20187;-85
2022/09/05 13:18:08;;;;;;;4.50;1.87;;;12.20;80.80;;;;;;5059598;28;20659;-79
2022/09/05 13:20:49;;;;;;;5.73;1.57;;;12.20;80.70;;;;;;5057763;28;20633;-83
2022/09/05 13:23:47;;;;;;;3.67;1.70;;;12.20;80.70;;;;;;5073414;28;20577;-79
2022/09/05 13:26:24;;;;;;;6.87;1.70;;;12.20;80.90;;;;;;5055561;28;20179;-74
2022/09/05 13:29:03;;;;;;;4.23;1.40;;;12.20;81.00;;;;;;5053598;28;20203;-77
2022/09/05 13:32:01;;;;;;;6.10;1.50;;;12.10;81.50;;;;;;5053141;28;20687;-75
2022/09/05 13:34:40;;;;;;;3.77;1.20;;;12.10;81.90;;;;;;5052985;28;20191;-81
2022/09/05 13:37:14;;;;;;;4.93;1.57;;;12.10;82.10;;;;;;5053581;28;20183;-81
2022/09/05 13:40:08;;;;;;;7.27;1.90;;;12.10;82.40;;;;;;5054974;28;20177;-83
2022/09/05 13:42:43;;;;;;;3.60;1.63;;;12.00;82.60;;;;;;5053242;28;20662;-83
2022/09/05 13:45:17;;;;;;;6.53;1.73;;;12.00;82.80;;;;;;5053220;28;20530;-75
2022/09/05 13:48:14;;;;;;;5.37;1.60;;;12.00;83.00;;;;;;5059263;28;20608;-81
2022/09/05 13:50:46;;;;;;;7.40;1.70;;;11.90;83.20;;;;;;5062512;28;20294;-78
2022/09/05 13:53:35;;;;;;;6.00;1.50;;;12.00;83.50;;;;;;5053714;28;20599;-84
2022/09/05 13:56:22;;;;;;;7.47;1.97;;;11.90;83.60;;;;;;5054455;28;20172;-86
2022/09/05 13:59:00;;;;;;;8.77;1.90;;;11.90;83.80;;;;;;5053029;28;20244;-74
2022/09/05 14:01:53;;;;;;;8.87;1.67;;;11.90;83.80;;;;;;5052830;28;20279;-75
2022/09/05 14:04:57;;;;;;;4.10;1.70;;;11.80;83.80;;;;;;5051870;28;20195;-73
2022/09/05 14:07:43;;;;;;;5.40;1.60;;;11.80;84.10;;;;;;5041901;28;20194;-75
2022/09/05 14:10:32;;;;;;;5.73;2.00;;;11.80;84.10;;;;;;5052246;28;20605;-74
2022/09/05 14:23:05;;;;;;;6.37;2.30;;;11.80;84.20;;;;;;5052546;28;20555;-77
2022/09/05 14:25:43;;;;;;;6.70;1.77;;;11.80;84.00;;;;;;5062043;28;20198;-78
2022/09/05 14:28:34;;;;;;;7.43;2.10;;;11.70;84.00;;;;;;5065951;28;20194;-75
2022/09/05 14:31:11;;;;;;;8.63;1.90;;;11.70;84.40;;;;;;5064290;28;20266;-77
2022/09/05 14:33:58;;;;;;;6.90;1.60;;;11.70;84.30;;;;;;5070774;28;20206;-76
2022/09/05 14:36:37;;;;;;;8.67;1.93;;;11.70;84.50;;;;;;5059826;28;20532;-77